Time;durP1;ratioP1;P1;durP2;ratioP2;P2;SDS_P1;SDS_P2;PMS_P1;PMS_P2;Temp;Humidity;BMP_temperature;BMP_pressure;BME280_temperature;BME280_humidity;BME280_pressure;Samples;Min_cycle;Max_cycle;Signal;HPM_P1;HPM_P2
2021/06/11 00:00:51;;;;;;;14.60;11.27;;;17.70;99.90;;;;;;5115072;28;20389;-82
2021/06/11 00:03:17;;;;;;;11.50;10.40;;;17.80;99.90;;;;;;5110057;28;20428;-82
2021/06/11 00:05:43;;;;;;;11.40;10.30;;;17.90;99.90;;;;;;5086731;28;20395;-83
2021/06/11 00:08:10;;;;;;;13.17;11.27;;;17.90;99.90;;;;;;5104580;28;20447;-83
2021/06/11 00:10:37;;;;;;;12.03;10.77;;;17.80;99.90;;;;;;5105395;28;20539;-82
2021/06/11 00:13:04;;;;;;;12.73;10.80;;;17.80;99.90;;;;;;5108654;28;20393;-83
2021/06/11 00:15:30;;;;;;;14.73;11.33;;;17.90;99.90;;;;;;5103825;28;20390;-82
2021/06/11 00:17:56;;;;;;;14.20;11.93;;;17.90;99.90;;;;;;5104030;28;20393;-82
2021/06/11 00:20:23;;;;;;;13.27;10.73;;;17.90;99.90;;;;;;5103292;28;20392;-82
2021/06/11 00:22:49;;;;;;;15.63;11.17;;;17.80;99.90;;;;;;5103330;28;20175;-81
2021/06/11 00:25:19;;;;;;;13.13;10.87;;;17.80;99.90;;;;;;5084454;28;20464;-82
2021/06/11 00:27:45;;;;;;;10.70;9.60;;;17.70;99.90;;;;;;5104233;28;20460;-82
2021/06/11 00:30:11;;;;;;;11.53;10.33;;;17.70;99.90;;;;;;5106806;28;20464;-81
2021/06/11 00:32:38;;;;;;;16.80;10.60;;;17.70;99.90;;;;;;5107378;28;20162;-81
2021/06/11 00:35:05;;;;;;;11.27;9.97;;;17.60;99.90;;;;;;5106408;28;20394;-82
2021/06/11 00:37:31;;;;;;;11.53;10.30;;;17.60;99.90;;;;;;5106665;28;20476;-81
2021/06/11 00:39:58;;;;;;;12.03;8.90;;;17.60;99.90;;;;;;5106068;28;20424;-82
2021/06/11 00:42:24;;;;;;;9.63;8.73;;;17.60;99.90;;;;;;5088530;28;20176;-82
2021/06/11 00:44:49;;;;;;;13.80;10.57;;;17.50;99.90;;;;;;5106838;28;20743;-80
2021/06/11 00:47:15;;;;;;;12.50;9.70;;;17.50;99.90;;;;;;5107649;28;20245;-81
2021/06/11 00:49:41;;;;;;;10.67;9.40;;;17.60;99.90;;;;;;5089317;28;20226;-81
2021/06/11 00:52:08;;;;;;;12.40;10.23;;;17.50;99.90;;;;;;5107186;28;20159;-81
2021/06/11 00:54:36;;;;;;;12.10;9.27;;;17.50;99.90;;;;;;5106060;28;20165;-82
2021/06/11 00:57:02;;;;;;;11.17;9.70;;;17.50;99.90;;;;;;5106497;28;20418;-82
2021/06/11 00:59:29;;;;;;;15.43;10.23;;;17.50;99.90;;;;;;5106440;28;20384;-82
2021/06/11 01:01:54;;;;;;;13.97;10.97;;;17.50;99.90;;;;;;5106598;28;20460;-81
2021/06/11 01:04:20;;;;;;;11.33;9.47;;;17.50;99.90;;;;;;5107451;28;20880;-82
2021/06/11 01:06:47;;;;;;;12.63;9.63;;;17.60;99.90;;;;;;5106550;28;20224;-82
2021/06/11 01:09:17;;;;;;;12.80;8.73;;;17.50;99.90;;;;;;5106499;28;20308;-82
2021/06/11 01:11:45;;;;;;;10.50;9.50;;;17.50;99.90;;;;;;5088055;28;20475;-82
2021/06/11 01:14:12;;;;;;;25.20;12.40;;;17.50;99.90;;;;;;5106303;28;20729;-82
2021/06/11 01:16:39;;;;;;;12.27;10.60;;;17.30;99.90;;;;;;5087572;28;20866;-81
2021/06/11 01:19:08;;;;;;;11.60;10.33;;;17.40;99.90;;;;;;5105766;28;20801;-81
2021/06/11 01:21:49;;;;;;;12.40;9.87;;;17.40;99.90;;;;;;5105543;28;20392;-82
2021/06/11 01:24:21;;;;;;;9.73;8.83;;;17.50;99.90;;;;;;5106508;28;20934;-81
2021/06/11 01:26:50;;;;;;;11.30;9.60;;;17.50;99.90;;;;;;5105690;28;20392;-81
2021/06/11 01:29:22;;;;;;;9.90;9.00;;;17.40;99.90;;;;;;5025808;28;20442;-82
2021/06/11 01:31:53;;;;;;;11.13;9.80;;;17.40;99.90;;;;;;5025965;28;20430;-81
2021/06/11 01:34:23;;;;;;;12.90;10.73;;;17.40;99.90;;;;;;5026569;28;20411;-82
2021/06/11 01:36:53;;;;;;;11.97;9.60;;;17.40;99.90;;;;;;5026299;28;20395;-81
2021/06/11 01:39:21;;;;;;;10.50;8.90;;;17.30;99.90;;;;;;5044094;28;20412;-82
2021/06/11 01:41:50;;;;;;;11.43;10.33;;;17.30;99.90;;;;;;5026950;28;20400;-82
2021/06/11 01:44:16;;;;;;;9.50;8.50;;;17.20;99.90;;;;;;5043761;28;20404;-82
2021/06/11 01:46:44;;;;;;;8.80;7.77;;;16.50;99.90;;;;;;5042792;28;20396;-82
2021/06/11 01:49:13;;;;;;;8.47;7.47;;;16.20;99.90;;;;;;5042806;28;20470;-82
2021/06/11 01:51:39;;;;;;;10.67;8.40;;;16.10;99.90;;;;;;5043087;28;20391;-82
2021/06/11 01:54:08;;;;;;;11.00;10.00;;;16.30;99.90;;;;;;5026360;28;20399;-81
2021/06/11 01:56:34;;;;;;;13.40;10.77;;;16.50;99.90;;;;;;5042559;28;20384;-82
2021/06/11 01:59:01;;;;;;;12.90;8.90;;;16.60;99.90;;;;;;5027532;28;20396;-82
2021/06/11 02:01:29;;;;;;;12.00;10.23;;;16.70;99.90;;;;;;5086568;28;20398;-81
2021/06/11 02:03:55;;;;;;;12.53;9.83;;;16.80;99.90;;;;;;5084371;28;20390;-82
2021/06/11 02:06:21;;;;;;;12.03;10.60;;;16.90;99.90;;;;;;5084105;28;20412;-81
2021/06/11 02:08:51;;;;;;;12.80;11.50;;;16.90;99.90;;;;;;5083991;28;20502;-82
2021/06/11 02:11:18;;;;;;;14.77;11.47;;;16.90;99.90;;;;;;5083929;28;20394;-81
2021/06/11 02:13:46;;;;;;;15.90;12.40;;;16.90;99.90;;;;;;5083870;28;20394;-82
2021/06/11 02:16:14;;;;;;;17.60;13.23;;;16.60;99.90;;;;;;5084240;28;20882;-81
2021/06/11 02:18:41;;;;;;;10.53;9.43;;;16.40;99.90;;;;;;5084101;28;20422;-82
2021/06/11 02:21:08;;;;;;;8.97;8.07;;;15.60;99.90;;;;;;5084197;28;20386;-82
2021/06/11 02:23:35;;;;;;;10.00;8.53;;;15.40;99.90;;;;;;5084512;28;20441;-82
2021/06/11 02:26:03;;;;;;;9.37;8.13;;;15.30;99.90;;;;;;5066183;28;20393;-81
2021/06/11 02:28:29;;;;;;;8.50;7.40;;;15.20;99.90;;;;;;5083487;28;20390;-81
2021/06/11 02:30:58;;;;;;;9.60;8.60;;;15.30;99.90;;;;;;5083530;28;20389;-82
2021/06/11 02:33:25;;;;;;;9.77;8.70;;;15.40;99.90;;;;;;5083756;28;20863;-81
2021/06/11 02:35:51;;;;;;;13.13;10.33;;;15.50;99.90;;;;;;5084209;28;20389;-82
2021/06/11 02:38:17;;;;;;;15.37;11.20;;;15.60;99.90;;;;;;5065794;28;20397;-82
2021/06/11 02:40:43;;;;;;;12.53;10.83;;;15.60;99.90;;;;;;5065248;28;20474;-82
2021/06/11 02:43:13;;;;;;;13.80;9.70;;;15.50;99.90;;;;;;5048748;28;20159;-81
2021/06/11 02:45:54;;;;;;;21.23;13.00;;;15.40;99.90;;;;;;5083414;28;20401;-82
2021/06/11 02:48:28;;;;;;;16.93;10.60;;;15.50;99.90;;;;;;5091080;28;20464;-81
2021/06/11 02:51:07;;;;;;;14.43;10.30;;;15.20;99.90;;;;;;5103643;28;20401;-82
2021/06/11 02:53:35;;;;;;;12.80;8.73;;;15.20;99.90;;;;;;5104289;28;20895;-82
2021/06/11 02:56:08;;;;;;;10.13;8.00;;;15.20;99.90;;;;;;5102389;28;20377;-82
2021/06/11 02:58:54;;;;;;;10.20;8.27;;;15.10;99.90;;;;;;5103198;28;20395;-82
2021/06/11 03:01:21;;;;;;;11.00;9.47;;;15.00;99.90;;;;;;5103681;28;20415;-82
2021/06/11 03:03:51;;;;;;;12.10;9.60;;;14.80;99.90;;;;;;5103452;28;20385;-82
2021/06/11 03:06:19;;;;;;;10.43;9.33;;;14.70;99.90;;;;;;5104178;28;20411;-82
2021/06/11 03:08:48;;;;;;;10.50;9.00;;;14.80;99.90;;;;;;5103850;28;20479;-82
2021/06/11 03:11:19;;;;;;;10.73;8.83;;;14.90;99.90;;;;;;5085246;28;20418;-82
2021/06/11 03:13:46;;;;;;;13.77;9.97;;;14.70;99.90;;;;;;5103451;28;20416;-82
2021/06/11 03:16:12;;;;;;;11.70;9.20;;;14.70;99.90;;;;;;5103964;28;20536;-81
2021/06/11 03:18:51;;;;;;;10.50;9.13;;;14.70;99.90;;;;;;5102277;28;20448;-82
2021/06/11 03:21:21;;;;;;;13.57;9.83;;;14.70;99.90;;;;;;5103394;28;20377;-82
2021/06/11 03:24:06;;;;;;;14.03;11.37;;;14.40;99.90;;;;;;5104245;28;20393;-80
2021/06/11 03:26:43;;;;;;;15.60;10.43;;;14.40;99.90;;;;;;5104374;28;20383;-81
2021/06/11 03:29:12;;;;;;;20.23;11.40;;;14.30;99.90;;;;;;5103862;28;20436;-79
2021/06/11 03:31:50;;;;;;;16.90;10.50;;;14.20;99.90;;;;;;5104868;28;20389;-78
2021/06/11 03:34:24;;;;;;;20.77;11.60;;;14.40;99.90;;;;;;5104498;28;20407;-80
2021/06/11 03:36:52;;;;;;;16.17;13.13;;;14.40;99.90;;;;;;5103394;28;20768;-79
2021/06/11 03:39:28;;;;;;;15.77;11.10;;;14.70;99.90;;;;;;5103256;28;20410;-80
2021/06/11 03:41:55;;;;;;;17.40;11.00;;;14.70;99.90;;;;;;5086202;28;20388;-81
2021/06/11 03:44:21;;;;;;;16.93;11.43;;;14.80;99.90;;;;;;5103984;28;20408;-80
2021/06/11 03:46:49;;;;;;;18.43;10.97;;;14.70;99.90;;;;;;5103187;28;20413;-81
2021/06/11 03:49:18;;;;;;;16.80;11.73;;;14.70;99.90;;;;;;5102433;28;21150;-82
2021/06/11 03:51:44;;;;;;;13.40;11.30;;;14.80;99.90;;;;;;5102784;28;20389;-81
2021/06/11 03:54:12;;;;;;;18.80;12.17;;;14.90;99.90;;;;;;5102824;28;20858;-82
2021/06/11 03:56:40;;;;;;;14.67;11.20;;;14.70;99.90;;;;;;5103183;28;20396;-82
2021/06/11 03:59:09;;;;;;;14.77;9.33;;;14.70;99.90;;;;;;5102943;28;20884;-80
2021/06/11 04:01:42;;;;;;;16.63;10.07;;;14.80;99.90;;;;;;5102670;28;20417;-84
2021/06/11 04:04:08;;;;;;;21.50;10.20;;;14.70;99.90;;;;;;5103406;28;20892;-83
2021/06/11 04:06:37;;;;;;;13.90;10.53;;;14.60;99.90;;;;;;5104233;28;20390;-82
2021/06/11 04:09:08;;;;;;;13.03;9.73;;;14.50;99.90;;;;;;5104052;28;20198;-82
2021/06/11 04:11:42;;;;;;;10.90;9.70;;;14.60;99.90;;;;;;5102945;28;20393;-82
2021/06/11 04:14:14;;;;;;;11.00;8.67;;;14.80;99.90;;;;;;5104386;28;20390;-82
2021/06/11 04:16:44;;;;;;;16.47;10.30;;;14.70;99.90;;;;;;5102533;28;20458;-81
2021/06/11 04:19:17;;;;;;;12.53;9.13;;;14.70;99.90;;;;;;5103030;28;20448;-82
2021/06/11 04:21:46;;;;;;;16.83;10.80;;;14.50;99.90;;;;;;5103756;28;20389;-82
2021/06/11 04:24:13;;;;;;;24.37;11.57;;;14.50;99.90;;;;;;5103823;28;20437;-82
2021/06/11 04:26:41;;;;;;;15.50;10.93;;;14.60;99.90;;;;;;5103457;28;20393;-82
2021/06/11 04:29:09;;;;;;;16.27;9.20;;;14.50;99.90;;;;;;5104052;28;20463;-83
2021/06/11 04:31:35;;;;;;;12.00;9.63;;;14.60;99.90;;;;;;5103132;28;20393;-82
2021/06/11 04:34:04;;;;;;;12.77;9.80;;;14.90;99.90;;;;;;5102840;28;20882;-84
2021/06/11 04:36:35;;;;;;;17.50;10.00;;;14.80;99.90;;;;;;5082503;28;20256;-83
2021/06/11 04:39:07;;;;;;;16.00;9.80;;;14.80;99.90;;;;;;5101995;28;20460;-81
2021/06/11 04:41:34;;;;;;;11.27;9.20;;;14.70;99.90;;;;;;5088503;28;20454;-81
2021/06/11 04:44:01;;;;;;;10.03;8.87;;;14.70;99.90;;;;;;5107945;28;20821;-82
2021/06/11 04:46:28;;;;;;;10.20;8.90;;;14.70;99.90;;;;;;5114341;28;20464;-78
2021/06/11 04:48:54;;;;;;;10.03;8.97;;;14.80;99.90;;;;;;5111381;28;20475;-83
2021/06/11 04:51:20;;;;;;;10.30;9.20;;;14.70;99.90;;;;;;5103270;28;20442;-82
2021/06/11 04:53:46;;;;;;;15.73;9.50;;;14.90;99.90;;;;;;5102955;28;20397;-80
2021/06/11 04:56:12;;;;;;;12.50;9.63;;;14.70;99.90;;;;;;5102800;28;20465;-79
2021/06/11 04:58:40;;;;;;;9.10;8.20;;;14.80;99.90;;;;;;5102312;28;20683;-79
2021/06/11 05:01:07;;;;;;;10.33;8.50;;;14.70;99.90;;;;;;5102725;28;20392;-80
2021/06/11 05:03:34;;;;;;;9.33;8.30;;;14.80;99.90;;;;;;5101122;28;20425;-81
2021/06/11 05:06:01;;;;;;;9.17;8.27;;;14.80;99.90;;;;;;5100533;28;20389;-81
2021/06/11 05:08:27;;;;;;;16.20;9.37;;;14.80;99.90;;;;;;5102508;28;20897;-80
2021/06/11 05:10:54;;;;;;;9.57;7.70;;;14.50;99.90;;;;;;5084668;28;20890;-81
2021/06/11 05:13:19;;;;;;;20.80;9.37;;;14.70;99.90;;;;;;5102769;28;20406;-81
2021/06/11 05:15:45;;;;;;;15.20;9.50;;;15.10;99.90;;;;;;5106758;28;20381;-81
2021/06/11 05:18:11;;;;;;;15.63;9.50;;;14.80;99.90;;;;;;5107433;28;20154;-81
2021/06/11 05:20:38;;;;;;;10.97;9.30;;;14.60;99.90;;;;;;5106214;28;20488;-81
2021/06/11 05:23:05;;;;;;;11.07;9.87;;;14.70;99.90;;;;;;5106966;28;20456;-79
2021/06/11 05:25:31;;;;;;;15.50;10.80;;;14.90;99.90;;;;;;5088999;28;20389;-81
2021/06/11 05:27:57;;;;;;;13.40;10.47;;;15.00;99.90;;;;;;5106704;28;20453;-81
2021/06/11 05:30:25;;;;;;;15.43;11.30;;;14.90;99.90;;;;;;5105981;28;20471;-81
2021/06/11 05:32:51;;;;;;;17.07;11.10;;;15.20;99.90;;;;;;5106297;28;20155;-81
2021/06/11 05:35:17;;;;;;;15.83;12.40;;;15.20;99.90;;;;;;5106886;28;20388;-82
2021/06/11 05:37:43;;;;;;;13.90;10.80;;;15.60;99.90;;;;;;5107174;28;20389;-83
2021/06/11 05:40:09;;;;;;;13.40;11.13;;;15.60;99.90;;;;;;5104386;28;20414;-83
2021/06/11 05:42:35;;;;;;;23.03;10.90;;;15.20;99.90;;;;;;5105377;28;20241;-83
2021/06/11 05:45:01;;;;;;;11.90;10.60;;;15.20;99.90;;;;;;5106282;28;20408;-83
2021/06/11 05:47:27;;;;;;;11.57;10.30;;;15.40;99.90;;;;;;5088630;28;20199;-82
2021/06/11 05:49:53;;;;;;;13.77;11.43;;;15.30;99.90;;;;;;5089462;28;20493;-83
2021/06/11 05:52:19;;;;;;;11.87;10.13;;;15.40;99.90;;;;;;5092778;28;20191;-83
2021/06/11 05:54:44;;;;;;;11.57;9.70;;;15.60;99.90;;;;;;5100787;28;20186;-82
2021/06/11 05:57:10;;;;;;;11.83;10.07;;;15.40;99.90;;;;;;5103550;28;20187;-83
2021/06/11 05:59:36;;;;;;;13.47;10.43;;;15.40;99.90;;;;;;5103189;28;20159;-82
2021/06/11 06:02:03;;;;;;;16.77;12.10;;;15.30;99.90;;;;;;5089847;28;20191;-82
2021/06/11 06:04:29;;;;;;;17.20;10.10;;;15.50;99.90;;;;;;5094040;28;20202;-82
2021/06/11 06:06:58;;;;;;;12.13;9.90;;;15.50;99.90;;;;;;5102226;28;20424;-83
2021/06/11 06:09:23;;;;;;;18.33;11.03;;;15.70;99.90;;;;;;5068506;28;20456;-83
2021/06/11 06:11:49;;;;;;;14.60;9.80;;;15.50;99.90;;;;;;5066916;28;20406;-83
2021/06/11 06:14:15;;;;;;;17.70;10.77;;;15.40;99.90;;;;;;5102452;28;20256;-83
2021/06/11 06:16:41;;;;;;;16.70;12.40;;;15.40;99.90;;;;;;5102137;28;20405;-83
2021/06/11 06:19:07;;;;;;;13.00;11.63;;;15.50;99.90;;;;;;5115305;28;20192;-82
2021/06/11 06:21:33;;;;;;;17.20;12.10;;;15.70;99.90;;;;;;5123782;28;20165;-82
2021/06/11 06:23:59;;;;;;;17.37;12.27;;;15.50;99.90;;;;;;5123875;28;20407;-83
2021/06/11 06:26:26;;;;;;;11.03;9.80;;;15.60;99.90;;;;;;5123631;28;20181;-83
2021/06/11 06:28:52;;;;;;;20.67;10.87;;;15.80;99.90;;;;;;5123130;28;20435;-82
2021/06/11 06:31:28;;;;;;;12.53;10.90;;;15.90;99.90;;;;;;5105482;28;20455;-83
2021/06/11 06:33:54;;;;;;;16.03;11.10;;;15.80;99.90;;;;;;5086401;28;20429;-83
2021/06/11 06:36:20;;;;;;;13.40;10.93;;;15.80;99.90;;;;;;5087955;28;20474;-82
2021/06/11 06:38:46;;;;;;;13.20;10.80;;;15.70;99.90;;;;;;5104207;28;20273;-82
2021/06/11 06:41:14;;;;;;;13.60;11.67;;;15.80;99.90;;;;;;5086390;28;20206;-82
2021/06/11 06:43:40;;;;;;;15.53;11.50;;;15.90;99.90;;;;;;5096422;28;20413;-82
2021/06/11 06:46:08;;;;;;;16.13;11.30;;;16.10;99.90;;;;;;5111811;28;20920;-82
2021/06/11 06:48:36;;;;;;;12.50;10.70;;;15.90;99.90;;;;;;5106929;28;20306;-83
2021/06/11 06:51:03;;;;;;;12.70;11.07;;;16.10;99.90;;;;;;5118874;28;20477;-83
2021/06/11 06:53:29;;;;;;;13.33;10.73;;;16.10;99.90;;;;;;5105803;28;20955;-82
2021/06/11 06:55:54;;;;;;;12.30;10.50;;;16.10;99.90;;;;;;5113412;28;20435;-82
2021/06/11 06:58:20;;;;;;;13.40;12.10;;;16.00;99.90;;;;;;5120158;28;20182;-82
2021/06/11 07:00:46;;;;;;;17.03;12.23;;;16.30;99.90;;;;;;5069303;28;20366;-82
2021/06/11 07:03:12;;;;;;;18.00;12.07;;;16.50;99.90;;;;;;5120891;28;20435;-82
2021/06/11 07:05:38;;;;;;;13.87;10.87;;;16.40;99.90;;;;;;5106056;28;20193;-82
2021/06/11 07:08:04;;;;;;;13.17;11.30;;;16.30;99.90;;;;;;5123587;28;20322;-82
2021/06/11 07:10:30;;;;;;;14.67;12.37;;;16.20;99.90;;;;;;5122726;28;20193;-82
2021/06/11 07:12:56;;;;;;;16.50;11.83;;;16.40;99.90;;;;;;5124029;28;20396;-82
2021/06/11 07:15:22;;;;;;;18.50;13.63;;;16.50;99.90;;;;;;5105578;28;20236;-82
2021/06/11 07:17:48;;;;;;;12.27;10.97;;;16.80;99.90;;;;;;5105442;28;20396;-82
2021/06/11 07:20:13;;;;;;;13.80;12.10;;;16.70;99.90;;;;;;5124076;28;20392;-82
2021/06/11 07:22:39;;;;;;;13.67;12.00;;;16.60;99.90;;;;;;5124285;28;20165;-84
2021/06/11 07:25:08;;;;;;;13.60;11.70;;;16.50;99.90;;;;;;5126110;28;20615;-82
2021/06/11 07:27:35;;;;;;;13.80;12.40;;;16.50;99.90;;;;;;5087417;28;20789;-82
2021/06/11 07:30:04;;;;;;;13.80;11.77;;;16.60;99.90;;;;;;5101562;28;20464;-81
2021/06/11 07:32:30;;;;;;;13.50;11.33;;;16.70;99.90;;;;;;5102673;28;20514;-81
2021/06/11 07:34:55;;;;;;;12.77;11.43;;;16.90;99.90;;;;;;5102367;28;20423;-81
2021/06/11 07:37:21;;;;;;;12.73;11.40;;;16.90;99.90;;;;;;5120055;28;20412;-80
2021/06/11 07:39:47;;;;;;;16.57;11.90;;;17.40;99.90;;;;;;5121820;28;20170;-80
2021/06/11 07:42:14;;;;;;;13.33;10.90;;;17.20;99.90;;;;;;5122601;28;20560;-81
2021/06/11 07:44:41;;;;;;;13.10;11.83;;;17.00;99.90;;;;;;5123606;28;20173;-83
2021/06/11 07:47:07;;;;;;;13.30;10.83;;;17.00;99.90;;;;;;5111874;28;20455;-82
2021/06/11 07:49:33;;;;;;;14.53;13.03;;;17.00;99.90;;;;;;5115647;28;20558;-82
2021/06/11 07:52:00;;;;;;;13.13;11.50;;;17.30;99.90;;;;;;5109496;28;20413;-82
2021/06/11 07:54:26;;;;;;;12.83;11.60;;;17.60;99.90;;;;;;5104841;28;20404;-82
2021/06/11 07:56:52;;;;;;;10.87;9.87;;;17.50;99.90;;;;;;5097333;28;20513;-81
2021/06/11 07:59:20;;;;;;;13.00;11.70;;;17.50;99.90;;;;;;5105711;28;20404;-81
2021/06/11 08:01:47;;;;;;;15.43;12.10;;;17.80;99.90;;;;;;5120512;28;20748;-80
2021/06/11 08:04:13;;;;;;;13.97;9.93;;;17.90;99.90;;;;;;5104543;28;20403;-82
2021/06/11 08:06:39;;;;;;;13.53;11.40;;;18.10;99.90;;;;;;5105770;28;20392;-82
2021/06/11 08:09:05;;;;;;;14.57;12.57;;;18.30;99.90;;;;;;5089434;28;20201;-82
2021/06/11 08:11:31;;;;;;;11.93;10.77;;;18.40;99.90;;;;;;5122475;28;20400;-82
2021/06/11 08:13:57;;;;;;;12.57;11.43;;;18.40;99.90;;;;;;5122553;28;20445;-83
2021/06/11 08:16:24;;;;;;;11.80;10.60;;;18.60;99.90;;;;;;5123379;28;20400;-83
2021/06/11 08:18:52;;;;;;;12.13;10.97;;;18.70;99.90;;;;;;5106580;28;20183;-83
2021/06/11 08:21:19;;;;;;;13.70;10.80;;;18.90;99.90;;;;;;5105616;28;20395;-83
2021/06/11 08:23:45;;;;;;;11.90;10.73;;;19.40;99.90;;;;;;5122860;28;20491;-82
2021/06/11 08:26:11;;;;;;;14.40;11.20;;;19.30;99.90;;;;;;5122761;28;20436;-83
2021/06/11 08:28:37;;;;;;;13.00;11.70;;;19.80;99.90;;;;;;5122705;28;20416;-81
2021/06/11 08:31:06;;;;;;;11.40;10.37;;;20.00;99.90;;;;;;5105428;28;20407;-82
2021/06/11 08:33:33;;;;;;;13.00;11.60;;;19.80;99.90;;;;;;5122515;28;20395;-82
2021/06/11 08:35:59;;;;;;;13.50;12.10;;;19.70;99.90;;;;;;5124557;28;20394;-81
2021/06/11 08:38:25;;;;;;;12.27;11.00;;;20.00;99.90;;;;;;5105024;28;20428;-81
2021/06/11 08:40:51;;;;;;;12.70;11.50;;;20.10;99.90;;;;;;5119091;28;20437;-82
2021/06/11 08:43:19;;;;;;;13.63;11.07;;;20.00;99.90;;;;;;5104154;28;20420;-81
2021/06/11 08:45:47;;;;;;;12.00;10.73;;;20.50;99.90;;;;;;5121061;28;20781;-82
2021/06/11 08:48:13;;;;;;;11.20;10.10;;;20.90;99.90;;;;;;5124991;28;20455;-82
2021/06/11 08:50:41;;;;;;;11.70;10.53;;;20.60;99.90;;;;;;5124292;28;20462;-82
2021/06/11 08:53:07;;;;;;;14.60;10.07;;;20.50;99.90;;;;;;5073485;28;20187;-82
2021/06/11 08:55:36;;;;;;;12.47;11.13;;;21.00;99.90;;;;;;5115346;28;20420;-80
2021/06/11 08:58:03;;;;;;;11.53;10.43;;;21.10;99.90;;;;;;5097038;28;20400;-80
2021/06/11 09:00:32;;;;;;;11.10;10.13;;;21.30;99.90;;;;;;5114414;28;20397;-80
2021/06/11 09:03:09;;;;;;;10.27;9.17;;;21.60;99.90;;;;;;5114981;28;20412;-81
2021/06/11 09:05:36;;;;;;;9.87;9.00;;;21.90;99.90;;;;;;5112188;28;20393;-82
2021/06/11 09:08:12;;;;;;;9.93;9.10;;;22.20;99.90;;;;;;5106052;28;20436;-82
2021/06/11 09:10:38;;;;;;;11.87;10.80;;;22.20;99.90;;;;;;5080857;28;21012;-81
2021/06/11 09:13:05;;;;;;;10.00;9.20;;;22.40;99.90;;;;;;5068199;28;20409;-81
2021/06/11 09:15:31;;;;;;;10.77;9.70;;;22.60;99.90;;;;;;5084072;28;20396;-82
2021/06/11 09:17:59;;;;;;;9.47;8.53;;;22.70;99.90;;;;;;5084401;28;20409;-82
2021/06/11 09:20:40;;;;;;;10.67;9.57;;;22.80;99.90;;;;;;5102150;28;20477;-82
2021/06/11 09:23:07;;;;;;;9.87;9.07;;;22.80;99.90;;;;;;5106315;28;20419;-82
2021/06/11 09:25:35;;;;;;;10.07;8.73;;;23.00;99.90;;;;;;5108181;28;20400;-82
2021/06/11 09:28:07;;;;;;;9.53;8.63;;;22.60;99.90;;;;;;5131696;28;20422;-83
2021/06/11 09:30:47;;;;;;;11.60;8.93;;;23.00;99.90;;;;;;5110233;28;20445;-82
2021/06/11 09:33:15;;;;;;;9.83;8.83;;;23.20;99.90;;;;;;5126983;28;20483;-82
2021/06/11 09:35:45;;;;;;;10.80;9.93;;;23.30;99.90;;;;;;5128665;28;20407;-82
2021/06/11 09:38:14;;;;;;;8.97;8.13;;;23.50;99.90;;;;;;5127047;28;20395;-82
2021/06/11 09:40:46;;;;;;;9.90;8.30;;;23.60;99.90;;;;;;5110839;28;20407;-82
2021/06/11 09:43:13;;;;;;;10.40;9.60;;;23.70;99.90;;;;;;5137774;27;20411;-81
2021/06/11 09:45:39;;;;;;;12.13;11.03;;;23.80;99.90;;;;;;5147792;27;20391;-82
2021/06/11 09:48:20;;;;;;;12.40;10.90;;;23.80;99.90;;;;;;5146054;27;20515;-82
2021/06/11 09:50:49;;;;;;;10.47;9.47;;;23.70;99.90;;;;;;5127549;28;20484;-82
2021/06/11 09:53:16;;;;;;;11.53;10.43;;;23.70;99.90;;;;;;5109243;28;20493;-82
2021/06/11 09:55:50;;;;;;;13.27;10.50;;;24.00;99.90;;;;;;5126284;28;20400;-82
2021/06/11 09:58:23;;;;;;;11.77;10.67;;;23.70;99.90;;;;;;5126147;28;20391;-82
2021/06/11 10:00:52;;;;;;;11.63;10.63;;;23.90;99.90;;;;;;5125571;28;20399;-82
2021/06/11 10:03:28;;;;;;;10.57;9.63;;;24.20;99.90;;;;;;5126904;28;20975;-81
2021/06/11 10:05:56;;;;;;;12.00;10.90;;;24.40;99.90;;;;;;5126371;28;20426;-82
2021/06/11 10:08:23;;;;;;;14.00;12.67;;;24.60;99.90;;;;;;5114756;28;20506;-82
2021/06/11 10:10:51;;;;;;;12.40;11.30;;;24.80;99.90;;;;;;5106354;28;20441;-82
2021/06/11 10:13:18;;;;;;;12.60;11.37;;;24.70;99.90;;;;;;5105115;28;20415;-82
2021/06/11 10:15:45;;;;;;;12.13;10.93;;;24.80;99.90;;;;;;5107001;28;20450;-82
2021/06/11 10:18:12;;;;;;;15.07;13.43;;;25.10;99.90;;;;;;5104955;28;20471;-81
2021/06/11 10:20:42;;;;;;;10.87;9.97;;;25.30;99.90;;;;;;5106793;28;20424;-82
2021/06/11 10:23:11;;;;;;;11.23;10.33;;;25.30;99.90;;;;;;5088516;28;20404;-82
2021/06/11 10:25:43;;;;;;;9.27;8.47;;;25.50;99.90;;;;;;5071549;28;20401;-83
2021/06/11 10:28:14;;;;;;;11.77;10.73;;;25.60;99.90;;;;;;5089223;28;20399;-82
2021/06/11 10:30:41;;;;;;;11.03;9.90;;;25.70;99.90;;;;;;5105978;28;20447;-82
2021/06/11 10:33:07;;;;;;;10.23;9.43;;;25.60;99.90;;;;;;5107339;28;20489;-82
2021/06/11 10:35:38;;;;;;;9.60;8.77;;;24.60;99.90;;;;;;5089402;28;20381;-82
2021/06/11 10:38:04;;;;;;;8.80;7.90;;;25.00;99.90;;;;;;5107758;28;20397;-82
2021/06/11 10:40:45;;;;;;;9.93;9.03;;;25.50;99.90;;;;;;5109915;28;20404;-82
2021/06/11 10:43:26;;;;;;;10.87;9.83;;;25.80;99.90;;;;;;5106499;28;20407;-82
2021/06/11 10:45:55;;;;;;;10.53;8.67;;;26.00;99.90;;;;;;5126132;28;20396;-82
2021/06/11 10:48:22;;;;;;;8.60;7.80;;;26.00;99.90;;;;;;5104941;28;20803;-82
2021/06/11 10:50:49;;;;;;;8.77;7.97;;;25.90;99.90;;;;;;5104385;28;20905;-82
2021/06/11 10:56:12;;;;;;;9.60;7.57;;;26.20;99.90;;;;;;5108921;28;20427;-82
2021/06/11 10:58:43;;;;;;;8.67;7.97;;;26.00;99.90;;;;;;5097596;28;20397;-81
2021/06/11 11:01:26;;;;;;;10.77;6.93;;;26.10;99.90;;;;;;5113934;28;20404;-81
2021/06/11 11:03:53;;;;;;;7.93;7.23;;;26.40;99.90;;;;;;5130658;28;20391;-83
2021/06/11 11:06:29;;;;;;;7.37;6.77;;;26.50;99.90;;;;;;5091566;28;20764;-83
2021/06/11 11:08:59;;;;;;;7.57;6.77;;;26.70;99.90;;;;;;5091476;28;20415;-83
2021/06/11 11:11:30;;;;;;;6.67;6.17;;;26.70;99.90;;;;;;5107907;28;20390;-83
2021/06/11 11:13:57;;;;;;;7.33;6.63;;;26.80;99.90;;;;;;5091751;28;20438;-83
2021/06/11 11:16:26;;;;;;;8.00;7.40;;;26.70;99.90;;;;;;5124849;28;20392;-83
2021/06/11 11:18:53;;;;;;;7.77;7.13;;;27.00;99.90;;;;;;5107886;28;20407;-83
2021/06/11 11:21:29;;;;;;;7.73;7.03;;;26.40;99.90;;;;;;5124544;28;20856;-83
2021/06/11 11:23:59;;;;;;;7.00;6.40;;;26.90;99.90;;;;;;5107311;28;20429;-83
2021/06/11 11:26:40;;;;;;;6.60;6.10;;;27.20;99.90;;;;;;5124471;28;20392;-82
2021/06/11 11:29:06;;;;;;;6.50;6.00;;;27.30;99.90;;;;;;5121573;28;20537;-83
2021/06/11 11:31:32;;;;;;;7.57;6.80;;;27.40;99.90;;;;;;5090082;28;20417;-82
2021/06/11 11:33:57;;;;;;;6.50;6.00;;;27.40;99.90;;;;;;5125179;28;20168;-82
2021/06/11 11:36:23;;;;;;;6.50;5.90;;;27.00;99.90;;;;;;5123765;28;20165;-82
2021/06/11 11:38:49;;;;;;;7.50;6.80;;;27.30;99.90;;;;;;5123209;28;20158;-83
2021/06/11 11:41:21;;;;;;;6.47;5.97;;;27.50;99.90;;;;;;5107158;28;20172;-82
2021/06/11 11:43:48;;;;;;;5.53;5.13;;;27.70;99.90;;;;;;5123694;28;20238;-81
2021/06/11 11:46:14;;;;;;;6.50;6.00;;;27.60;99.90;;;;;;5122130;28;20519;-82
2021/06/11 11:48:39;;;;;;;7.80;6.07;;;27.30;99.90;;;;;;5123094;28;20489;-81
2021/06/11 11:51:06;;;;;;;6.97;6.27;;;27.70;99.90;;;;;;5105117;28;20412;-82
2021/06/11 11:53:32;;;;;;;6.83;6.33;;;27.90;99.90;;;;;;5125356;28;20221;-81
2021/06/11 11:56:02;;;;;;;6.53;6.03;;;28.20;99.90;;;;;;5123161;28;20379;-81
2021/06/11 11:58:27;;;;;;;6.93;6.40;;;28.40;99.90;;;;;;5124748;28;20398;-82
2021/06/11 12:00:54;;;;;;;6.73;5.93;;;28.60;99.90;;;;;;5123264;28;20482;-81
2021/06/11 12:03:20;;;;;;;7.30;6.80;;;28.40;99.90;;;;;;5118989;28;20185;-82
2021/06/11 12:05:46;;;;;;;7.30;6.67;;;28.60;98.40;;;;;;5111131;28;20528;-83
2021/06/11 12:08:12;;;;;;;5.90;5.50;;;28.90;97.20;;;;;;5086451;28;20432;-82
2021/06/11 12:10:38;;;;;;;5.57;5.13;;;28.90;98.20;;;;;;5104432;28;20601;-82
2021/06/11 12:13:03;;;;;;;6.20;5.70;;;29.10;96.70;;;;;;5087532;28;20173;-82
2021/06/11 12:15:29;;;;;;;5.97;5.50;;;29.20;92.20;;;;;;5103846;28;20157;-82
2021/06/11 12:17:57;;;;;;;6.73;6.23;;;29.00;91.90;;;;;;5103432;28;20491;-83
2021/06/11 12:20:23;;;;;;;6.00;5.50;;;28.90;94.10;;;;;;5102691;28;20154;-83
2021/06/11 12:22:50;;;;;;;6.77;6.30;;;29.20;93.70;;;;;;5115971;28;20411;-83
2021/06/11 12:25:16;;;;;;;5.33;4.93;;;29.40;93.60;;;;;;5125240;28;20466;-83
2021/06/11 12:27:41;;;;;;;6.80;6.30;;;29.60;91.10;;;;;;5123050;28;20399;-83
2021/06/11 12:30:11;;;;;;;6.77;6.27;;;29.80;93.00;;;;;;5124845;28;20192;-82
2021/06/11 12:32:42;;;;;;;6.07;5.67;;;29.80;91.60;;;;;;5123385;28;20172;-82
2021/06/11 12:35:09;;;;;;;8.10;6.10;;;29.60;88.60;;;;;;5067811;28;20165;-82
2021/06/11 12:37:35;;;;;;;5.63;5.25;;;29.90;90.60;;;;;;5101264;28;20170;-83
2021/06/11 12:40:03;;;;;;;5.43;5.13;;;30.00;86.60;;;;;;5072491;28;20231;-83